Time;durP1;ratioP1;P1;durP2;ratioP2;P2;SDS_P1;SDS_P2;PMS_P1;PMS_P2;Temp;Humidity;BMP_temperature;BMP_pressure;BME280_temperature;BME280_humidity;BME280_pressure;Samples;Min_cycle;Max_cycle;Signal;HPM_P1;HPM_P2
2021/08/28 00:01:38;;;;;;;11.23;6.07;;;;;;;;;;4992880;28;20179;-70
2021/08/28 00:04:03;;;;;;;9.80;5.70;;;;;;;;;;4993328;28;20701;-70
2021/08/28 00:06:28;;;;;;;20.23;6.43;;;;;;;;;;4993467;28;20184;-71
2021/08/28 00:08:53;;;;;;;13.98;6.38;;;;;;;;;;4993266;28;20262;-71
2021/08/28 00:11:20;;;;;;;15.30;6.28;;;;;;;;;;4993060;28;20214;-70
2021/08/28 00:13:45;;;;;;;17.25;6.80;;;;;;;;;;4993787;28;20286;-70
2021/08/28 00:16:10;;;;;;;15.10;6.75;;;;;;;;;;4993417;28;20267;-71
2021/08/28 00:18:36;;;;;;;13.05;6.47;;;;;;;;;;4992364;28;20180;-71
2021/08/28 00:21:01;;;;;;;14.18;6.20;;;;;;;;;;4993277;28;20207;-71
2021/08/28 00:23:26;;;;;;;14.00;6.45;;;;;;;;;;4993248;28;20196;-70
2021/08/28 00:25:52;;;;;;;12.25;6.43;;;;;;;;;;4993056;28;20187;-70
2021/08/28 00:28:17;;;;;;;12.23;5.78;;;;;;;;;;4983599;28;20184;-70
2021/08/28 00:30:42;;;;;;;16.50;6.07;;;;;;;;;;4980058;28;20291;-70
2021/08/28 00:33:08;;;;;;;14.32;6.07;;;;;;;;;;4990306;28;20665;-71
2021/08/28 00:35:33;;;;;;;10.43;6.10;;;;;;;;;;4992877;28;20184;-70
2021/08/28 00:37:58;;;;;;;18.95;6.85;;;;;;;;;;4992935;28;20255;-70
2021/08/28 00:40:23;;;;;;;9.95;5.40;;;;;;;;;;4992580;28;20183;-70
2021/08/28 00:42:51;;;;;;;11.90;6.35;;;;;;;;;;4992749;28;20199;-70
2021/08/28 00:45:17;;;;;;;15.77;5.45;;;;;;;;;;4993044;28;20532;-71
2021/08/28 00:47:49;;;;;;;14.55;5.60;;;;;;;;;;4993262;28;20183;-70
2021/08/28 00:50:15;;;;;;;14.27;5.93;;;;;;;;;;4992605;28;20290;-70
2021/08/28 00:52:40;;;;;;;11.63;6.53;;;;;;;;;;4992857;28;20282;-69
2021/08/28 00:55:05;;;;;;;13.10;5.82;;;;;;;;;;4992489;28;20179;-70
2021/08/28 00:57:30;;;;;;;11.98;5.95;;;;;;;;;;4992567;28;20249;-69
2021/08/28 00:59:55;;;;;;;12.80;7.38;;;;;;;;;;4992213;28;20267;-69
2021/08/28 01:02:22;;;;;;;14.13;6.03;;;;;;;;;;4988061;28;20258;-69
2021/08/28 01:04:50;;;;;;;13.95;6.40;;;;;;;;;;4992349;28;20491;-69
2021/08/28 01:07:19;;;;;;;16.08;6.13;;;;;;;;;;4992444;28;20254;-70
2021/08/28 01:09:45;;;;;;;14.07;6.53;;;;;;;;;;4992078;28;20199;-69
2021/08/28 01:12:18;;;;;;;13.13;6.15;;;;;;;;;;4992535;28;20200;-70
2021/08/28 01:14:45;;;;;;;16.17;6.10;;;;;;;;;;4989457;28;20183;-70
2021/08/28 01:17:13;;;;;;;10.82;6.88;;;;;;;;;;4992398;28;20203;-70
2021/08/28 01:19:57;;;;;;;17.70;7.15;;;;;;;;;;4991790;28;20187;-70
2021/08/28 01:22:22;;;;;;;15.15;6.50;;;;;;;;;;4992133;28;20595;-70
2021/08/28 01:24:48;;;;;;;15.93;7.20;;;;;;;;;;4992485;28;20182;-70
2021/08/28 01:27:27;;;;;;;11.85;5.88;;;;;;;;;;4992117;28;20649;-70
2021/08/28 01:29:52;;;;;;;13.85;6.95;;;;;;;;;;4987969;28;20298;-69
2021/08/28 01:32:18;;;;;;;19.67;6.85;;;;;;;;;;4991890;28;20638;-70
2021/08/28 01:34:44;;;;;;;14.40;6.93;;;;;;;;;;4992434;28;20374;-70
2021/08/28 01:37:11;;;;;;;16.52;7.18;;;;;;;;;;4991983;28;20262;-70
2021/08/28 01:39:36;;;;;;;13.25;6.50;;;;;;;;;;4991715;28;20587;-70
2021/08/28 01:42:03;;;;;;;13.95;6.80;;;;;;;;;;4990424;28;20264;-70
2021/08/28 01:44:29;;;;;;;11.20;6.15;;;;;;;;;;4991699;28;20175;-70
2021/08/28 01:46:54;;;;;;;15.38;6.05;;;;;;;;;;4992021;28;20216;-71
2021/08/28 01:49:21;;;;;;;11.90;5.80;;;;;;;;;;4991341;28;20293;-70
2021/08/28 01:51:47;;;;;;;13.05;6.22;;;;;;;;;;4991940;28;20176;-70
2021/08/28 01:54:13;;;;;;;19.33;6.28;;;;;;;;;;4991690;28;20207;-71
2021/08/28 01:56:38;;;;;;;13.73;6.40;;;;;;;;;;4991623;28;20207;-70
2021/08/28 01:59:03;;;;;;;17.02;5.60;;;;;;;;;;4991439;28;20650;-70
2021/08/28 02:01:29;;;;;;;12.65;6.43;;;;;;;;;;4991311;28;20179;-70
2021/08/28 02:03:54;;;;;;;13.85;6.07;;;;;;;;;;4991435;28;20219;-69
2021/08/28 02:06:38;;;;;;;10.77;6.75;;;;;;;;;;4991778;28;20176;-68
2021/08/28 02:09:15;;;;;;;12.80;6.15;;;;;;;;;;4988853;28;20203;-66
2021/08/28 02:12:01;;;;;;;9.40;5.85;;;;;;;;;;4991802;28;20203;-69
2021/08/28 02:14:38;;;;;;;10.25;5.85;;;;;;;;;;4991030;28;20192;-69
2021/08/28 02:17:06;;;;;;;15.43;7.07;;;;;;;;;;4989321;28;20278;-69
2021/08/28 02:19:31;;;;;;;16.02;6.35;;;;;;;;;;4990888;28;20182;-67
2021/08/28 02:21:59;;;;;;;11.20;4.78;;;;;;;;;;4991747;28;20180;-69
2021/08/28 02:24:31;;;;;;;15.20;5.45;;;;;;;;;;4986971;28;20199;-69
2021/08/28 02:26:59;;;;;;;12.07;6.05;;;;;;;;;;4991496;28;20180;-69
2021/08/28 02:29:29;;;;;;;14.98;7.82;;;;;;;;;;4987380;28;20262;-68
2021/08/28 02:31:58;;;;;;;11.80;6.20;;;;;;;;;;4991704;28;20183;-69
2021/08/28 02:34:23;;;;;;;16.23;6.13;;;;;;;;;;4989081;28;20183;-68
2021/08/28 02:36:49;;;;;;;13.90;6.65;;;;;;;;;;4991775;28;20183;-70
2021/08/28 02:39:16;;;;;;;16.45;6.78;;;;;;;;;;4991268;28;20274;-70
2021/08/28 02:41:42;;;;;;;11.07;6.35;;;;;;;;;;4991455;28;20210;-70
2021/08/28 02:44:07;;;;;;;14.45;6.30;;;;;;;;;;4991452;28;20219;-67
2021/08/28 02:46:34;;;;;;;14.98;7.13;;;;;;;;;;4991417;28;20606;-70
2021/08/28 02:49:00;;;;;;;13.05;7.38;;;;;;;;;;4990756;28;20200;-67
2021/08/28 02:51:27;;;;;;;13.85;6.75;;;;;;;;;;4991329;28;20597;-70
2021/08/28 02:53:53;;;;;;;10.07;5.75;;;;;;;;;;4991078;28;20711;-69
2021/08/28 02:56:20;;;;;;;13.98;6.60;;;;;;;;;;4991267;28;20231;-68
2021/08/28 02:58:46;;;;;;;10.60;5.60;;;;;;;;;;4994768;28;20186;-68
2021/08/28 03:01:11;;;;;;;16.67;7.10;;;;;;;;;;4994338;28;20187;-68
2021/08/28 03:03:37;;;;;;;12.52;5.30;;;;;;;;;;4994365;28;20216;-68
2021/08/28 03:06:03;;;;;;;14.02;6.13;;;;;;;;;;4994631;28;20187;-68
2021/08/28 03:08:28;;;;;;;10.30;5.90;;;;;;;;;;4994357;28;20239;-68
2021/08/28 03:10:54;;;;;;;10.20;5.72;;;;;;;;;;4994456;28;20215;-68
2021/08/28 03:13:20;;;;;;;11.32;4.93;;;;;;;;;;4994277;28;20478;-68
2021/08/28 03:15:46;;;;;;;13.45;5.15;;;;;;;;;;4994415;28;20178;-69
2021/08/28 03:18:12;;;;;;;10.20;4.93;;;;;;;;;;4994123;28;20175;-69
2021/08/28 03:20:38;;;;;;;10.90;4.28;;;;;;;;;;4994389;28;20179;-69
2021/08/28 03:23:03;;;;;;;10.23;4.97;;;;;;;;;;4994682;28;20206;-69
2021/08/28 03:25:29;;;;;;;8.65;4.55;;;;;;;;;;4994493;28;20176;-70
2021/08/28 03:27:55;;;;;;;10.93;4.40;;;;;;;;;;4994693;28;20180;-70
2021/08/28 03:30:20;;;;;;;9.05;4.85;;;;;;;;;;4993975;28;20217;-70
2021/08/28 03:32:46;;;;;;;11.02;4.78;;;;;;;;;;4994123;28;20203;-69
2021/08/28 03:35:12;;;;;;;9.20;4.57;;;;;;;;;;4994191;28;20681;-70
2021/08/28 03:37:39;;;;;;;10.20;5.07;;;;;;;;;;4993988;28;20199;-69
2021/08/28 03:40:05;;;;;;;11.27;4.55;;;;;;;;;;4993636;28;20203;-70
2021/08/28 03:42:30;;;;;;;11.10;5.18;;;;;;;;;;4993935;28;20230;-69
2021/08/28 03:44:58;;;;;;;13.40;4.90;;;;;;;;;;4993948;28;20242;-70
2021/08/28 03:47:24;;;;;;;20.15;6.35;;;;;;;;;;4991835;28;20179;-70
2021/08/28 03:49:49;;;;;;;12.85;4.80;;;;;;;;;;4993579;28;20214;-70
2021/08/28 03:52:14;;;;;;;6.57;4.73;;;;;;;;;;4993683;28;20227;-69
2021/08/28 03:54:39;;;;;;;10.93;4.68;;;;;;;;;;4993716;28;20397;-69
2021/08/28 03:57:04;;;;;;;8.88;4.45;;;;;;;;;;4993683;28;20175;-70
2021/08/28 03:59:30;;;;;;;11.85;5.25;;;;;;;;;;4993508;28;20283;-67
2021/08/28 04:01:55;;;;;;;11.05;5.97;;;;;;;;;;4989771;28;20177;-68
2021/08/28 04:04:20;;;;;;;13.03;5.40;;;;;;;;;;4993145;28;20295;-68
2021/08/28 04:06:45;;;;;;;7.82;4.47;;;;;;;;;;4993619;28;20460;-67
2021/08/28 04:09:10;;;;;;;13.52;5.68;;;;;;;;;;4993207;28;20191;-69
2021/08/28 04:11:36;;;;;;;9.82;4.43;;;;;;;;;;4993440;28;20179;-68
2021/08/28 04:14:01;;;;;;;13.75;5.70;;;;;;;;;;4993363;28;20210;-68
2021/08/28 04:16:26;;;;;;;12.52;4.63;;;;;;;;;;4993541;28;20187;-68
2021/08/28 04:18:51;;;;;;;11.35;5.28;;;;;;;;;;4992808;28;20335;-69
2021/08/28 04:21:16;;;;;;;9.87;4.97;;;;;;;;;;4993532;28;20187;-69
2021/08/28 04:23:42;;;;;;;11.95;5.40;;;;;;;;;;4993547;28;20482;-68
2021/08/28 04:26:07;;;;;;;10.93;5.53;;;;;;;;;;4992788;28;20175;-68
2021/08/28 04:28:32;;;;;;;9.25;5.30;;;;;;;;;;4992931;28;20229;-68
2021/08/28 04:30:57;;;;;;;9.18;4.85;;;;;;;;;;4993131;28;20204;-67
2021/08/28 04:33:22;;;;;;;9.77;4.53;;;;;;;;;;4993257;28;20681;-68
2021/08/28 04:35:47;;;;;;;11.80;5.00;;;;;;;;;;4992996;28;20209;-68
2021/08/28 04:38:13;;;;;;;9.23;4.78;;;;;;;;;;4993452;28;20182;-68
2021/08/28 04:40:38;;;;;;;9.68;5.05;;;;;;;;;;4990702;28;20812;-69
2021/08/28 04:43:03;;;;;;;12.93;6.00;;;;;;;;;;4975563;28;20203;-68
2021/08/28 04:45:29;;;;;;;9.95;4.15;;;;;;;;;;4992711;28;20242;-68
2021/08/28 04:47:54;;;;;;;12.98;5.57;;;;;;;;;;4992982;28;20183;-69
2021/08/28 04:50:19;;;;;;;8.53;4.67;;;;;;;;;;4992087;28;20297;-69
2021/08/28 04:52:44;;;;;;;6.47;4.65;;;;;;;;;;4992917;28;20437;-68
2021/08/28 04:55:09;;;;;;;8.60;5.28;;;;;;;;;;4974939;28;20736;-69
2021/08/28 04:57:35;;;;;;;10.50;4.53;;;;;;;;;;4992650;28;20187;-70
2021/08/28 05:00:00;;;;;;;6.22;4.20;;;;;;;;;;4992082;28;20183;-70
2021/08/28 05:02:25;;;;;;;6.15;4.32;;;;;;;;;;4974867;28;20208;-67
2021/08/28 05:04:50;;;;;;;11.53;4.70;;;;;;;;;;4992170;28;20195;-70
2021/08/28 05:07:15;;;;;;;6.68;4.18;;;;;;;;;;4992561;28;20413;-68
2021/08/28 05:09:41;;;;;;;8.20;4.43;;;;;;;;;;4991879;28;20216;-69
2021/08/28 05:12:06;;;;;;;7.00;4.40;;;;;;;;;;4977272;28;20211;-68
2021/08/28 05:14:31;;;;;;;11.30;4.75;;;;;;;;;;4992306;28;20206;-67
2021/08/28 05:16:56;;;;;;;7.00;4.57;;;;;;;;;;4991267;28;20414;-68
2021/08/28 05:19:22;;;;;;;11.80;5.07;;;;;;;;;;4991168;28;20175;-68
2021/08/28 05:21:47;;;;;;;9.73;4.80;;;;;;;;;;4992183;28;20238;-69
2021/08/28 05:24:13;;;;;;;8.38;4.18;;;;;;;;;;4992702;28;20768;-69
2021/08/28 05:26:38;;;;;;;7.57;5.13;;;;;;;;;;4991802;28;20172;-67
2021/08/28 05:29:03;;;;;;;11.07;4.93;;;;;;;;;;4991818;28;20194;-68
2021/08/28 05:31:28;;;;;;;12.00;5.27;;;;;;;;;;4991887;28;20409;-69
2021/08/28 05:33:54;;;;;;;8.45;5.05;;;;;;;;;;4992169;28;20427;-67
2021/08/28 05:36:19;;;;;;;11.07;4.55;;;;;;;;;;4991855;28;20246;-66
2021/08/28 05:38:44;;;;;;;9.93;4.23;;;;;;;;;;4991887;28;20657;-68
2021/08/28 05:41:09;;;;;;;8.90;4.68;;;;;;;;;;4987159;28;20428;-67
2021/08/28 05:43:34;;;;;;;11.68;4.50;;;;;;;;;;4992075;28;20269;-68
2021/08/28 05:46:00;;;;;;;8.93;4.40;;;;;;;;;;4991783;28;20179;-67
2021/08/28 05:48:25;;;;;;;9.65;4.63;;;;;;;;;;4991873;28;20187;-68
2021/08/28 05:50:50;;;;;;;7.93;4.30;;;;;;;;;;4991779;28;20238;-67
2021/08/28 05:53:15;;;;;;;10.63;4.35;;;;;;;;;;4991825;28;20291;-68
2021/08/28 05:55:41;;;;;;;9.15;3.92;;;;;;;;;;4991839;28;20234;-67
2021/08/28 05:58:06;;;;;;;10.70;3.80;;;;;;;;;;4991829;28;20191;-68
2021/08/28 06:00:31;;;;;;;9.55;4.70;;;;;;;;;;4991536;28;20182;-67
2021/08/28 06:02:56;;;;;;;6.73;3.70;;;;;;;;;;4991511;28;20608;-67
2021/08/28 06:05:21;;;;;;;7.22;3.72;;;;;;;;;;4991779;28;20489;-68
2021/08/28 06:07:46;;;;;;;10.65;4.88;;;;;;;;;;4992042;28;20274;-65
2021/08/28 06:10:12;;;;;;;9.98;4.40;;;;;;;;;;4980913;28;20207;-67
2021/08/28 06:12:37;;;;;;;5.22;3.47;;;;;;;;;;4991674;28;20192;-67
2021/08/28 06:15:05;;;;;;;9.00;4.28;;;;;;;;;;4991811;28;20258;-68
2021/08/28 06:17:30;;;;;;;6.95;3.38;;;;;;;;;;4991611;28;20171;-68
2021/08/28 06:19:55;;;;;;;5.63;3.75;;;;;;;;;;4991257;28;20673;-68
2021/08/28 06:22:20;;;;;;;10.55;3.65;;;;;;;;;;4991426;28;20678;-68
2021/08/28 06:24:45;;;;;;;8.60;3.17;;;;;;;;;;4991716;28;20186;-67
2021/08/28 06:27:11;;;;;;;11.90;3.55;;;;;;;;;;4991548;28;20206;-67
2021/08/28 06:29:36;;;;;;;7.40;4.63;;;;;;;;;;4991167;28;20195;-68
2021/08/28 06:32:02;;;;;;;7.18;3.50;;;;;;;;;;4992855;28;20270;-68
2021/08/28 06:34:27;;;;;;;6.88;3.60;;;;;;;;;;4995314;28;20187;-68
2021/08/28 06:36:52;;;;;;;5.80;3.20;;;;;;;;;;4995113;28;20540;-69
2021/08/28 06:39:18;;;;;;;6.28;2.97;;;;;;;;;;4994936;28;20176;-67
2021/08/28 06:41:43;;;;;;;10.20;3.35;;;;;;;;;;4995042;28;20590;-67
2021/08/28 06:44:08;;;;;;;10.02;3.35;;;;;;;;;;4995142;28;20194;-67
2021/08/28 06:46:33;;;;;;;6.90;3.20;;;;;;;;;;4995256;28;20207;-67
2021/08/28 06:48:58;;;;;;;7.38;3.10;;;;;;;;;;4976474;28;20182;-68
2021/08/28 06:51:24;;;;;;;7.57;3.30;;;;;;;;;;4994783;28;20661;-68
2021/08/28 06:53:49;;;;;;;6.38;3.38;;;;;;;;;;4973472;28;20440;-69
2021/08/28 06:56:15;;;;;;;6.78;3.17;;;;;;;;;;4994843;28;20168;-67
2021/08/28 06:58:40;;;;;;;10.13;3.38;;;;;;;;;;4994438;28;20237;-67
2021/08/28 07:01:05;;;;;;;6.93;3.83;;;;;;;;;;4994453;28;20180;-67
2021/08/28 07:03:31;;;;;;;5.67;3.00;;;;;;;;;;4994716;28;20459;-67
2021/08/28 07:05:56;;;;;;;7.27;3.30;;;;;;;;;;4994634;28;20949;-67
2021/08/28 07:08:21;;;;;;;8.03;3.13;;;;;;;;;;4995039;28;20476;-67
2021/08/28 07:10:46;;;;;;;6.90;3.70;;;;;;;;;;4987689;28;20457;-67
2021/08/28 07:13:12;;;;;;;6.80;3.53;;;;;;;;;;4994599;28;20441;-68
2021/08/28 07:15:37;;;;;;;6.28;3.75;;;;;;;;;;4994997;28;20183;-67
2021/08/28 07:18:02;;;;;;;9.50;3.25;;;;;;;;;;4994503;28;20176;-67
2021/08/28 07:20:27;;;;;;;8.00;3.90;;;;;;;;;;4994392;28;20258;-67
2021/08/28 07:22:52;;;;;;;6.20;3.25;;;;;;;;;;4994367;28;20628;-68
2021/08/28 07:25:18;;;;;;;7.33;3.30;;;;;;;;;;4994529;28;20194;-67
2021/08/28 07:27:44;;;;;;;5.60;2.78;;;;;;;;;;4994082;28;20422;-67
2021/08/28 07:30:09;;;;;;;5.30;2.90;;;;;;;;;;4994097;28;20238;-68
2021/08/28 07:32:34;;;;;;;7.03;3.20;;;;;;;;;;4994222;28;20198;-68
2021/08/28 07:35:00;;;;;;;5.40;2.97;;;;;;;;;;4993815;28;20182;-70
2021/08/28 07:37:25;;;;;;;7.88;3.78;;;;;;;;;;4994262;28;20184;-69
2021/08/28 07:39:50;;;;;;;8.82;3.53;;;;;;;;;;4993891;28;20179;-68
2021/08/28 07:42:15;;;;;;;5.78;2.85;;;;;;;;;;4994255;28;20291;-68
2021/08/28 07:44:41;;;;;;;6.20;3.45;;;;;;;;;;4994068;28;20258;-68
2021/08/28 07:47:06;;;;;;;10.90;3.50;;;;;;;;;;4994097;28;20242;-68
2021/08/28 07:49:31;;;;;;;10.60;3.65;;;;;;;;;;4993803;28;20463;-67
2021/08/28 07:51:56;;;;;;;6.20;2.90;;;;;;;;;;4983962;28;20198;-68
2021/08/28 07:54:21;;;;;;;7.35;2.83;;;;;;;;;;4993942;28;20494;-67
2021/08/28 07:56:47;;;;;;;8.57;3.08;;;;;;;;;;4993714;28;20171;-67
2021/08/28 07:59:12;;;;;;;9.23;3.25;;;;;;;;;;4993386;28;20563;-66
2021/08/28 08:01:37;;;;;;;6.90;3.22;;;;;;;;;;4993736;28;20277;-68
2021/08/28 08:04:02;;;;;;;7.13;2.83;;;;;;;;;;5036859;22;20240;-68
2021/08/28 08:06:28;;;;;;;8.10;3.20;;;;;;;;;;5033600;28;20535;-69
2021/08/28 08:08:53;;;;;;;7.33;3.00;;;;;;;;;;5039669;28;20186;-71
2021/08/28 08:11:18;;;;;;;9.23;3.10;;;;;;;;;;5036443;28;20424;-69
2021/08/28 08:13:44;;;;;;;5.45;3.10;;;;;;;;;;5032819;28;20198;-69
2021/08/28 08:16:09;;;;;;;7.30;3.03;;;;;;;;;;5032860;28;20228;-69
2021/08/28 08:18:34;;;;;;;7.90;3.72;;;;;;;;;;5032282;28;20174;-68
2021/08/28 08:21:00;;;;;;;5.18;2.88;;;;;;;;;;5032866;28;20177;-68
2021/08/28 08:23:25;;;;;;;10.55;3.40;;;;;;;;;;5032451;28;20206;-68
2021/08/28 08:25:50;;;;;;;6.05;3.47;;;;;;;;;;5033129;28;20178;-68
2021/08/28 08:28:15;;;;;;;6.23;3.27;;;;;;;;;;5032145;28;20193;-68
2021/08/28 08:30:40;;;;;;;6.43;3.10;;;;;;;;;;5031142;28;20534;-68
2021/08/28 08:33:05;;;;;;;4.03;3.50;;;;;;;;;;5032299;28;20450;-68
2021/08/28 08:35:31;;;;;;;7.68;3.22;;;;;;;;;;5032663;28;20458;-69
2021/08/28 08:37:57;;;;;;;7.63;3.87;;;;;;;;;;5032222;28;20220;-68
2021/08/28 08:40:23;;;;;;;5.25;3.13;;;;;;;;;;5024502;28;20502;-71
2021/08/28 08:42:49;;;;;;;11.95;3.88;;;;;;;;;;5032501;28;20337;-71
2021/08/28 08:45:14;;;;;;;7.68;3.30;;;;;;;;;;5032113;28;20208;-68
2021/08/28 08:47:40;;;;;;;6.25;3.20;;;;;;;;;;5032034;28;20543;-69
2021/08/28 08:50:06;;;;;;;9.70;3.38;;;;;;;;;;5031135;28;20682;-68
2021/08/28 08:52:31;;;;;;;6.13;2.97;;;;;;;;;;5031900;28;20230;-69
2021/08/28 08:54:57;;;;;;;5.68;3.25;;;;;;;;;;5031408;28;20730;-69
2021/08/28 08:57:22;;;;;;;8.50;3.03;;;;;;;;;;5029156;28;20660;-71
2021/08/28 08:59:48;;;;;;;5.63;2.97;;;;;;;;;;5031851;28;20228;-69
2021/08/28 09:02:13;;;;;;;6.25;3.30;;;;;;;;;;5031297;28;20205;-68
2021/08/28 09:04:38;;;;;;;7.35;3.03;;;;;;;;;;5029214;28;20190;-68
2021/08/28 09:07:04;;;;;;;7.30;3.05;;;;;;;;;;5031884;28;20178;-68
2021/08/28 09:09:29;;;;;;;5.93;3.28;;;;;;;;;;5031643;28;20201;-69
2021/08/28 09:11:57;;;;;;;7.53;3.30;;;;;;;;;;5032356;28;20236;-69
2021/08/28 09:14:23;;;;;;;9.23;3.40;;;;;;;;;;5022420;28;20412;-70
2021/08/28 09:16:49;;;;;;;6.47;3.42;;;;;;;;;;5031541;28;20225;-69
2021/08/28 09:19:14;;;;;;;8.35;3.47;;;;;;;;;;5031255;28;20538;-69
2021/08/28 09:21:40;;;;;;;5.45;3.40;;;;;;;;;;5031549;28;20661;-69
2021/08/28 09:24:06;;;;;;;6.65;3.63;;;;;;;;;;5031392;28;20209;-72
2021/08/28 09:26:33;;;;;;;7.72;3.60;;;;;;;;;;5031984;28;20178;-70
2021/08/28 09:28:59;;;;;;;8.57;3.05;;;;;;;;;;5028030;28;20585;-68
2021/08/28 09:31:36;;;;;;;6.22;3.58;;;;;;;;;;5031536;28;20173;-71
2021/08/28 09:34:14;;;;;;;4.72;3.00;;;;;;;;;;5028552;28;20194;-71
2021/08/28 09:36:39;;;;;;;5.63;3.15;;;;;;;;;;5031425;28;20552;-70
2021/08/28 09:39:05;;;;;;;7.30;3.22;;;;;;;;;;5031003;28;20174;-69
2021/08/28 09:41:31;;;;;;;7.10;3.05;;;;;;;;;;5031220;28;20178;-69
2021/08/28 09:44:07;;;;;;;7.75;3.28;;;;;;;;;;5029766;28;20260;-68
2021/08/28 09:46:32;;;;;;;8.18;3.38;;;;;;;;;;5031307;28;20193;-69
2021/08/28 09:48:59;;;;;;;8.48;3.20;;;;;;;;;;5030807;28;20554;-68
2021/08/28 09:51:24;;;;;;;9.85;3.55;;;;;;;;;;5030837;28;20241;-69
2021/08/28 09:53:58;;;;;;;7.57;3.90;;;;;;;;;;5031035;28;20206;-69
2021/08/28 09:56:25;;;;;;;7.05;3.35;;;;;;;;;;5030385;28;20402;-68
2021/08/28 09:58:50;;;;;;;6.55;3.92;;;;;;;;;;5030618;28;20257;-68
2021/08/28 10:01:19;;;;;;;6.90;3.60;;;;;;;;;;5031253;28;20261;-70
2021/08/28 10:03:56;;;;;;;6.75;3.42;;;;;;;;;;5028928;28;20737;-69
2021/08/28 10:06:21;;;;;;;6.85;3.40;;;;;;;;;;5036669;28;20200;-70
2021/08/28 10:08:46;;;;;;;4.55;3.22;;;;;;;;;;5037174;28;20587;-68
2021/08/28 10:11:11;;;;;;;7.13;3.10;;;;;;;;;;5036682;28;20632;-70
2021/08/28 10:13:37;;;;;;;7.03;3.53;;;;;;;;;;5035901;28;20503;-69
2021/08/28 10:16:03;;;;;;;6.05;3.25;;;;;;;;;;5035875;28;20190;-69
2021/08/28 10:18:28;;;;;;;5.68;2.85;;;;;;;;;;5035143;28;20227;-70
2021/08/28 10:20:55;;;;;;;5.65;3.35;;;;;;;;;;5035467;28;20182;-69
2021/08/28 10:23:21;;;;;;;6.47;3.55;;;;;;;;;;5035084;28;20252;-71
2021/08/28 10:25:47;;;;;;;6.15;3.60;;;;;;;;;;5035128;28;20210;-72
2021/08/28 10:28:13;;;;;;;6.95;3.85;;;;;;;;;;5034853;28;20178;-68
2021/08/28 10:30:38;;;;;;;7.43;3.40;;;;;;;;;;5034723;28;20217;-70
2021/08/28 10:33:03;;;;;;;5.83;3.30;;;;;;;;;;5034764;28;20277;-70
2021/08/28 10:35:29;;;;;;;6.90;3.13;;;;;;;;;;5033432;28;20408;-69
2021/08/28 10:37:54;;;;;;;3.42;2.80;;;;;;;;;;5032815;28;20186;-70
2021/08/28 10:40:21;;;;;;;5.38;2.70;;;;;;;;;;5034363;28;20166;-71
2021/08/28 10:42:48;;;;;;;4.90;3.00;;;;;;;;;;5034598;28;20769;-70
2021/08/28 10:45:13;;;;;;;5.90;2.80;;;;;;;;;;5034449;28;20277;-69
2021/08/28 10:47:43;;;;;;;5.13;3.10;;;;;;;;;;5034260;28;20253;-69
2021/08/28 10:50:09;;;;;;;5.35;2.80;;;;;;;;;;5032233;28;20236;-72
2021/08/28 10:52:36;;;;;;;5.03;2.70;;;;;;;;;;5032032;28;20682;-69
2021/08/28 10:55:09;;;;;;;4.75;2.83;;;;;;;;;;5034106;28;20179;-71
2021/08/28 10:57:34;;;;;;;4.40;2.45;;;;;;;;;;5034245;28;20253;-69
2021/08/28 11:00:05;;;;;;;4.80;2.60;;;;;;;;;;5033762;28;20265;-70
2021/08/28 11:02:48;;;;;;;4.28;2.20;;;;;;;;;;5033777;28;20213;-70
2021/08/28 11:05:14;;;;;;;4.80;2.35;;;;;;;;;;5033686;28;20546;-70
2021/08/28 11:07:41;;;;;;;3.88;2.42;;;;;;;;;;5034320;28;20263;-69
2021/08/28 11:10:11;;;;;;;4.07;2.72;;;;;;;;;;5033653;28;20194;-69
2021/08/28 11:12:42;;;;;;;4.45;2.58;;;;;;;;;;5033720;28;20198;-70
2021/08/28 11:15:30;;;;;;;4.03;2.38;;;;;;;;;;5026274;28;20178;-70
2021/08/28 11:18:03;;;;;;;3.00;2.35;;;;;;;;;;5033088;28;20709;-70
2021/08/28 11:20:35;;;;;;;3.65;2.42;;;;;;;;;;5033251;28;20182;-70
2021/08/28 11:23:04;;;;;;;6.10;2.70;;;;;;;;;;5033803;28;20277;-70
2021/08/28 11:25:30;;;;;;;2.67;2.10;;;;;;;;;;5033622;28;20179;-69
2021/08/28 11:27:56;;;;;;;3.33;2.00;;;;;;;;;;5033251;28;20174;-69
2021/08/28 11:30:40;;;;;;;3.47;2.15;;;;;;;;;;5032863;28;20623;-70
2021/08/28 11:33:08;;;;;;;4.60;2.58;;;;;;;;;;5033268;28;20281;-70
2021/08/28 11:35:33;;;;;;;3.35;2.08;;;;;;;;;;5033562;28;20308;-71
2021/08/28 11:38:05;;;;;;;3.30;2.53;;;;;;;;;;5033008;28;20660;-71
2021/08/28 11:40:31;;;;;;;4.72;2.30;;;;;;;;;;5032876;28;20528;-70
2021/08/28 11:42:57;;;;;;;3.75;2.00;;;;;;;;;;5033059;28;20711;-69
2021/08/28 11:45:30;;;;;;;5.15;2.92;;;;;;;;;;5033390;28;20217;-70
2021/08/28 11:47:55;;;;;;;4.72;3.05;;;;;;;;;;5033095;28;20185;-70
2021/08/28 11:50:27;;;;;;;5.40;2.10;;;;;;;;;;5031944;28;20285;-69
2021/08/28 11:52:53;;;;;;;5.60;2.40;;;;;;;;;;5032982;28;20277;-70
2021/08/28 11:55:22;;;;;;;4.18;2.15;;;;;;;;;;5032659;28;20175;-70
2021/08/28 11:57:58;;;;;;;4.20;2.30;;;;;;;;;;5033030;28;20185;-70
2021/08/28 12:00:27;;;;;;;3.08;2.22;;;;;;;;;;5028125;28;20605;-70
2021/08/28 12:02:55;;;;;;;5.32;2.30;;;;;;;;;;5032776;28;20218;-70
2021/08/28 12:05:20;;;;;;;3.22;2.08;;;;;;;;;;5032382;28;20174;-70
2021/08/28 12:07:50;;;;;;;5.20;2.30;;;;;;;;;;5032816;28;20794;-68
2021/08/28 12:10:16;;;;;;;3.78;2.83;;;;;;;;;;5032129;28;20447;-70
2021/08/28 12:12:41;;;;;;;3.33;2.75;;;;;;;;;;5032691;28;20186;-70
2021/08/28 12:15:06;;;;;;;4.50;2.50;;;;;;;;;;5032363;28;20201;-69
2021/08/28 12:17:32;;;;;;;5.18;2.50;;;;;;;;;;5032689;28;20175;-69
2021/08/28 12:19:58;;;;;;;6.45;2.20;;;;;;;;;;5031692;28;20559;-73
2021/08/28 12:22:23;;;;;;;3.45;2.28;;;;;;;;;;5032534;28;20209;-70
2021/08/28 12:24:48;;;;;;;5.13;2.93;;;;;;;;;;5032273;28;20182;-69
2021/08/28 12:27:14;;;;;;;3.90;2.40;;;;;;;;;;5032605;28;20253;-72
2021/08/28 12:29:40;;;;;;;4.15;2.50;;;;;;;;;;5030634;28;20450;-70
2021/08/28 12:32:10;;;;;;;3.97;2.78;;;;;;;;;;5032315;28;20182;-70
2021/08/28 12:34:36;;;;;;;6.60;2.53;;;;;;;;;;5031988;28;20527;-70
2021/08/28 12:37:05;;;;;;;5.22;2.88;;;;;;;;;;5032177;28;20182;-70
2021/08/28 12:39:31;;;;;;;4.72;2.20;;;;;;;;;;5031766;28;20262;-69
2021/08/28 12:41:57;;;;;;;5.30;2.78;;;;;;;;;;5032074;28;20206;-69
2021/08/28 12:44:24;;;;;;;4.20;2.20;;;;;;;;;;5033038;28;20198;-70
2021/08/28 12:46:50;;;;;;;3.38;2.40;;;;;;;;;;5032016;28;20174;-70
2021/08/28 12:49:17;;;;;;;7.38;2.80;;;;;;;;;;5025975;28;20195;-69
2021/08/28 12:51:56;;;;;;;7.45;3.08;;;;;;;;;;5032081;28;20174;-70
2021/08/28 12:54:24;;;;;;;4.35;2.13;;;;;;;;;;5031606;28;20194;-69
2021/08/28 12:56:50;;;;;;;3.28;2.03;;;;;;;;;;5028808;28;20687;-72
2021/08/28 12:59:16;;;;;;;3.30;2.40;;;;;;;;;;5028472;28;20182;-71
2021/08/28 13:01:41;;;;;;;4.93;1.80;;;;;;;;;;5025791;28;20167;-70
2021/08/28 13:04:07;;;;;;;2.57;2.27;;;;;;;;;;5031157;28;20218;-69
2021/08/28 13:06:32;;;;;;;3.47;2.15;;;;;;;;;;5031269;28;20201;-70
2021/08/28 13:09:12;;;;;;;4.47;2.43;;;;;;;;;;5030603;28;20189;-69
2021/08/28 13:11:38;;;;;;;4.68;1.90;;;;;;;;;;5024634;28;20502;-69
2021/08/28 13:14:03;;;;;;;3.33;2.30;;;;;;;;;;5030848;28;20340;-70
2021/08/28 13:16:29;;;;;;;2.60;2.13;;;;;;;;;;5029412;28;20174;-70
2021/08/28 13:19:12;;;;;;;3.42;2.15;;;;;;;;;;5030697;28;20174;-70
2021/08/28 13:21:37;;;;;;;4.68;2.70;;;;;;;;;;5024927;28;20178;-69
2021/08/28 13:24:13;;;;;;;4.80;2.28;;;;;;;;;;5030846;28;20248;-73
2021/08/28 13:26:56;;;;;;;4.60;2.17;;;;;;;;;;5030480;28;20178;-69
2021/08/28 13:29:25;;;;;;;3.40;2.17;;;;;;;;;;5030380;28;20166;-70
2021/08/28 13:32:02;;;;;;;5.55;2.00;;;;;;;;;;5030770;28;20186;-70
2021/08/28 13:34:33;;;;;;;7.40;2.25;;;;;;;;;;5030325;28;20281;-69
2021/08/28 13:36:58;;;;;;;2.70;1.85;;;;;;;;;;5030543;28;20170;-70
2021/08/28 13:39:23;;;;;;;2.72;1.83;;;;;;;;;;5027882;28;20189;-70
2021/08/28 13:41:49;;;;;;;3.63;1.77;;;;;;;;;;5031005;28;20178;-71
2021/08/28 13:44:14;;;;;;;3.37;2.03;;;;;;;;;;5031395;28;20260;-69
2021/08/28 13:46:39;;;;;;;2.47;1.90;;;;;;;;;;5031568;28;20174;-70
2021/08/28 13:49:04;;;;;;;5.03;2.00;;;;;;;;;;5031074;28;20178;-69
2021/08/28 13:51:30;;;;;;;4.25;2.13;;;;;;;;;;5031220;28;20515;-70
2021/08/28 13:53:55;;;;;;;6.47;2.20;;;;;;;;;;5031066;28;20245;-69
2021/08/28 13:56:21;;;;;;;3.38;1.90;;;;;;;;;;5030455;28;20644;-69
2021/08/28 13:58:46;;;;;;;3.43;1.70;;;;;;;;;;5030310;28;20558;-70
2021/08/28 14:01:11;;;;;;;3.70;1.83;;;;;;;;;;5031028;28;20182;-69
2021/08/28 14:03:36;;;;;;;3.87;2.37;;;;;;;;;;5017300;22;20615;-71
2021/08/28 14:06:01;;;;;;;5.20;2.03;;;;;;;;;;4971816;28;20207;-70
2021/08/28 14:08:26;;;;;;;2.63;2.07;;;;;;;;;;4971726;28;20653;-68
2021/08/28 14:10:52;;;;;;;3.80;2.33;;;;;;;;;;4971903;28;20461;-70
2021/08/28 14:13:17;;;;;;;4.03;1.87;;;;;;;;;;4970436;28;20204;-67
2021/08/28 14:15:42;;;;;;;2.30;2.07;;;;;;;;;;4971857;28;20889;-66
2021/08/28 14:18:07;;;;;;;4.77;2.33;;;;;;;;;;4971886;28;20427;-67
2021/08/28 14:20:32;;;;;;;3.17;1.90;;;;;;;;;;4970670;28;20418;-68
2021/08/28 14:22:58;;;;;;;6.38;1.75;;;;;;;;;;4972302;28;20711;-68
2021/08/28 14:25:23;;;;;;;5.18;2.20;;;;;;;;;;4972640;28;20627;-67
2021/08/28 14:27:48;;;;;;;4.93;2.38;;;;;;;;;;4972214;28;20559;-68
2021/08/28 14:30:13;;;;;;;6.10;2.45;;;;;;;;;;4971021;28;20553;-67
2021/08/28 14:32:39;;;;;;;4.63;2.35;;;;;;;;;;4971824;28;20620;-67
2021/08/28 14:35:04;;;;;;;5.88;2.03;;;;;;;;;;4971175;28;20652;-68